sensor_id;sensor_type;location;lat;lon;timestamp;temperature;humidity
18741;DHT22;9499;52.472;13.448;2023-12-14T00:02:01;4.90;99.90
18741;DHT22;9499;52.472;13.448;2023-12-14T00:04:28;4.80;99.90
18741;DHT22;9499;52.472;13.448;2023-12-14T00:06:54;4.90;99.90
18741;DHT22;9499;52.472;13.448;2023-12-14T00:09:22;4.90;99.90
18741;DHT22;9499;52.472;13.448;2023-12-14T00:11:49;4.90;99.90
18741;DHT22;9499;52.472;13.448;2023-12-14T00:14:15;4.90;99.90
18741;DHT22;9499;52.472;13.448;2023-12-14T00:16:42;4.90;99.90
18741;DHT22;9499;52.472;13.448;2023-12-14T00:19:08;4.90;99.90
18741;DHT22;9499;52.472;13.448;2023-12-14T00:21:35;4.80;99.90
18741;DHT22;9499;52.472;13.448;2023-12-14T00:24:02;4.80;99.90
18741;DHT22;9499;52.472;13.448;2023-12-14T00:26:31;4.80;99.90
18741;DHT22;9499;52.472;13.448;2023-12-14T00:28:57;4.80;99.90
18741;DHT22;9499;52.472;13.448;2023-12-14T00:31:24;4.70;99.90
18741;DHT22;9499;52.472;13.448;2023-12-14T00:33:50;4.70;99.90
18741;DHT22;9499;52.472;13.448;2023-12-14T00:36:18;4.70;99.90
18741;DHT22;9499;52.472;13.448;2023-12-14T00:38:44;4.70;99.90
18741;DHT22;9499;52.472;13.448;2023-12-14T00:41:11;4.60;99.90
18741;DHT22;9499;52.472;13.448;2023-12-14T00:43:39;4.60;99.90
18741;DHT22;9499;52.472;13.448;2023-12-14T00:46:07;4.60;99.90
18741;DHT22;9499;52.472;13.448;2023-12-14T00:48:33;4.60;99.90
18741;DHT22;9499;52.472;13.448;2023-12-14T00:51:00;4.60;99.90
18741;DHT22;9499;52.472;13.448;2023-12-14T00:53:27;4.60;99.90
18741;DHT22;9499;52.472;13.448;2023-12-14T00:55:53;4.60;99.90
18741;DHT22;9499;52.472;13.448;2023-12-14T00:58:21;4.60;99.90
18741;DHT22;9499;52.472;13.448;2023-12-14T01:00:48;4.50;99.90
18741;DHT22;9499;52.472;13.448;2023-12-14T01:03:15;4.50;99.90
18741;DHT22;9499;52.472;13.448;2023-12-14T01:05:41;4.40;99.90
18741;DHT22;9499;52.472;13.448;2023-12-14T01:08:08;4.50;99.90
18741;DHT22;9499;52.472;13.448;2023-12-14T01:10:35;4.50;99.90
18741;DHT22;9499;52.472;13.448;2023-12-14T01:13:02;4.50;99.90
18741;DHT22;9499;52.472;13.448;2023-12-14T01:15:29;4.40;99.90
18741;DHT22;9499;52.472;13.448;2023-12-14T01:17:57;4.30;99.90
18741;DHT22;9499;52.472;13.448;2023-12-14T01:20:24;4.40;99.90
18741;DHT22;9499;52.472;13.448;2023-12-14T01:22:51;4.30;99.90
18741;DHT22;9499;52.472;13.448;2023-12-14T01:25:18;4.40;99.90
18741;DHT22;9499;52.472;13.448;2023-12-14T01:27:44;4.30;99.90
18741;DHT22;9499;52.472;13.448;2023-12-14T01:30:11;4.40;99.90
18741;DHT22;9499;52.472;13.448;2023-12-14T01:32:38;4.30;99.90
18741;DHT22;9499;52.472;13.448;2023-12-14T01:35:07;4.30;99.90
18741;DHT22;9499;52.472;13.448;2023-12-14T01:37:34;4.30;99.90
18741;DHT22;9499;52.472;13.448;2023-12-14T01:40:01;4.30;99.90
18741;DHT22;9499;52.472;13.448;2023-12-14T01:42:27;4.40;99.90
18741;DHT22;9499;52.472;13.448;2023-12-14T01:44:54;4.30;99.90
18741;DHT22;9499;52.472;13.448;2023-12-14T01:47:21;4.30;99.90
18741;DHT22;9499;52.472;13.448;2023-12-14T01:49:48;4.30;99.90
18741;DHT22;9499;52.472;13.448;2023-12-14T01:52:16;4.30;99.90
18741;DHT22;9499;52.472;13.448;2023-12-14T01:54:43;4.30;99.90
18741;DHT22;9499;52.472;13.448;2023-12-14T01:57:09;4.30;99.90
18741;DHT22;9499;52.472;13.448;2023-12-14T01:59:36;4.40;99.90
18741;DHT22;9499;52.472;13.448;2023-12-14T02:02:03;4.30;99.90
18741;DHT22;9499;52.472;13.448;2023-12-14T02:04:31;4.20;99.90
18741;DHT22;9499;52.472;13.448;2023-12-14T02:06:59;4.20;99.90
18741;DHT22;9499;52.472;13.448;2023-12-14T02:09:29;4.20;99.90
18741;DHT22;9499;52.472;13.448;2023-12-14T02:11:55;4.10;99.90
18741;DHT22;9499;52.472;13.448;2023-12-14T02:14:22;4.10;99.90
18741;DHT22;9499;52.472;13.448;2023-12-14T02:16:49;4.10;99.90
18741;DHT22;9499;52.472;13.448;2023-12-14T02:19:17;4.10;99.90
18741;DHT22;9499;52.472;13.448;2023-12-14T02:21:44;4.10;99.90
18741;DHT22;9499;52.472;13.448;2023-12-14T02:24:12;4.00;99.90
18741;DHT22;9499;52.472;13.448;2023-12-14T02:26:40;4.00;99.90
18741;DHT22;9499;52.472;13.448;2023-12-14T02:29:07;4.10;99.90
18741;DHT22;9499;52.472;13.448;2023-12-14T02:31:34;4.10;99.90
18741;DHT22;9499;52.472;13.448;2023-12-14T02:34:04;4.10;99.90
18741;DHT22;9499;52.472;13.448;2023-12-14T02:36:33;4.10;99.90
18741;DHT22;9499;52.472;13.448;2023-12-14T02:39:01;4.10;99.90
18741;DHT22;9499;52.472;13.448;2023-12-14T02:41:29;4.10;99.90
18741;DHT22;9499;52.472;13.448;2023-12-14T02:43:56;4.10;99.90
18741;DHT22;9499;52.472;13.448;2023-12-14T02:46:23;4.00;99.90
18741;DHT22;9499;52.472;13.448;2023-12-14T02:48:50;4.10;99.90
18741;DHT22;9499;52.472;13.448;2023-12-14T02:51:18;4.10;99.90
18741;DHT22;9499;52.472;13.448;2023-12-14T02:53:45;4.10;99.90
18741;DHT22;9499;52.472;13.448;2023-12-14T02:56:11;4.00;99.90
18741;DHT22;9499;52.472;13.448;2023-12-14T02:58:39;4.00;99.90
18741;DHT22;9499;52.472;13.448;2023-12-14T03:01:06;4.00;99.90
18741;DHT22;9499;52.472;13.448;2023-12-14T03:03:33;4.00;99.90
18741;DHT22;9499;52.472;13.448;2023-12-14T03:05:59;4.00;99.90
18741;DHT22;9499;52.472;13.448;2023-12-14T03:08:26;3.90;99.90
18741;DHT22;9499;52.472;13.448;2023-12-14T03:10:54;3.90;99.90
18741;DHT22;9499;52.472;13.448;2023-12-14T03:13:21;4.00;99.90
18741;DHT22;9499;52.472;13.448;2023-12-14T03:15:49;4.00;99.90
18741;DHT22;9499;52.472;13.448;2023-12-14T03:18:15;4.00;99.90
18741;DHT22;9499;52.472;13.448;2023-12-14T03:20:42;3.90;99.90
18741;DHT22;9499;52.472;13.448;2023-12-14T03:23:09;3.90;99.90
18741;DHT22;9499;52.472;13.448;2023-12-14T03:25:36;3.90;99.90
18741;DHT22;9499;52.472;13.448;2023-12-14T03:28:03;3.90;99.90
18741;DHT22;9499;52.472;13.448;2023-12-14T03:30:29;3.90;99.90
18741;DHT22;9499;52.472;13.448;2023-12-14T03:32:57;3.90;99.90
18741;DHT22;9499;52.472;13.448;2023-12-14T03:35:23;3.90;99.90
18741;DHT22;9499;52.472;13.448;2023-12-14T03:37:50;3.90;99.90
18741;DHT22;9499;52.472;13.448;2023-12-14T03:40:17;3.90;99.90
18741;DHT22;9499;52.472;13.448;2023-12-14T03:42:44;3.90;99.90
18741;DHT22;9499;52.472;13.448;2023-12-14T03:45:11;3.90;99.90
18741;DHT22;9499;52.472;13.448;2023-12-14T03:47:38;3.90;99.90
18741;DHT22;9499;52.472;13.448;2023-12-14T03:50:11;3.80;99.90
18741;DHT22;9499;52.472;13.448;2023-12-14T03:52:37;3.80;99.90
18741;DHT22;9499;52.472;13.448;2023-12-14T03:55:05;3.80;99.90
18741;DHT22;9499;52.472;13.448;2023-12-14T03:57:32;3.80;99.90
18741;DHT22;9499;52.472;13.448;2023-12-14T03:59:59;3.80;99.90
18741;DHT22;9499;52.472;13.448;2023-12-14T04:02:25;3.80;99.90
18741;DHT22;9499;52.472;13.448;2023-12-14T04:04:52;3.90;99.90
18741;DHT22;9499;52.472;13.448;2023-12-14T04:07:20;3.90;99.90
18741;DHT22;9499;52.472;13.448;2023-12-14T04:09:47;3.90;99.90
18741;DHT22;9499;52.472;13.448;2023-12-14T04:12:15;3.90;99.90
18741;DHT22;9499;52.472;13.448;2023-12-14T04:14:42;3.90;99.90
18741;DHT22;9499;52.472;13.448;2023-12-14T04:17:08;3.90;99.90
18741;DHT22;9499;52.472;13.448;2023-12-14T04:19:38;3.90;99.90
18741;DHT22;9499;52.472;13.448;2023-12-14T04:22:04;3.90;99.90
18741;DHT22;9499;52.472;13.448;2023-12-14T04:24:32;3.90;99.90
18741;DHT22;9499;52.472;13.448;2023-12-14T04:26:59;3.90;99.90
18741;DHT22;9499;52.472;13.448;2023-12-14T04:29:25;3.80;99.90
18741;DHT22;9499;52.472;13.448;2023-12-14T04:31:52;3.90;99.90
18741;DHT22;9499;52.472;13.448;2023-12-14T04:34:19;3.90;99.90
18741;DHT22;9499;52.472;13.448;2023-12-14T04:36:46;3.90;99.90
18741;DHT22;9499;52.472;13.448;2023-12-14T04:39:13;3.90;99.90
18741;DHT22;9499;52.472;13.448;2023-12-14T04:41:42;3.90;99.90
18741;DHT22;9499;52.472;13.448;2023-12-14T04:44:08;3.90;99.90
18741;DHT22;9499;52.472;13.448;2023-12-14T04:46:37;3.90;99.90
18741;DHT22;9499;52.472;13.448;2023-12-14T04:49:03;3.90;99.90
18741;DHT22;9499;52.472;13.448;2023-12-14T04:51:30;3.90;99.90
18741;DHT22;9499;52.472;13.448;2023-12-14T04:53:57;3.90;99.90
18741;DHT22;9499;52.472;13.448;2023-12-14T04:56:23;3.80;99.90
18741;DHT22;9499;52.472;13.448;2023-12-14T04:58:54;3.80;99.90
18741;DHT22;9499;52.472;13.448;2023-12-14T05:01:20;3.90;99.90
18741;DHT22;9499;52.472;13.448;2023-12-14T05:03:47;3.90;99.90
18741;DHT22;9499;52.472;13.448;2023-12-14T05:06:15;3.90;99.90
18741;DHT22;9499;52.472;13.448;2023-12-14T05:08:41;3.90;99.90
18741;DHT22;9499;52.472;13.448;2023-12-14T05:11:09;3.90;99.90
18741;DHT22;9499;52.472;13.448;2023-12-14T05:13:35;3.90;99.90
18741;DHT22;9499;52.472;13.448;2023-12-14T05:16:05;3.90;99.90
18741;DHT22;9499;52.472;13.448;2023-12-14T05:18:32;3.90;99.90
18741;DHT22;9499;52.472;13.448;2023-12-14T05:20:59;3.90;99.90
18741;DHT22;9499;52.472;13.448;2023-12-14T05:23:25;3.90;99.90
18741;DHT22;9499;52.472;13.448;2023-12-14T05:25:52;4.00;99.90
18741;DHT22;9499;52.472;13.448;2023-12-14T05:28:19;4.00;99.90
18741;DHT22;9499;52.472;13.448;2023-12-14T05:30:46;4.00;99.90
18741;DHT22;9499;52.472;13.448;2023-12-14T05:33:13;4.00;99.90
18741;DHT22;9499;52.472;13.448;2023-12-14T05:35:41;4.00;99.90
18741;DHT22;9499;52.472;13.448;2023-12-14T05:38:08;4.00;99.90
18741;DHT22;9499;52.472;13.448;2023-12-14T05:40:35;4.00;99.90
18741;DHT22;9499;52.472;13.448;2023-12-14T05:43:02;3.90;99.90
18741;DHT22;9499;52.472;13.448;2023-12-14T05:45:30;3.90;99.90
18741;DHT22;9499;52.472;13.448;2023-12-14T05:47:56;3.90;99.90
18741;DHT22;9499;52.472;13.448;2023-12-14T05:50:24;3.90;99.90
18741;DHT22;9499;52.472;13.448;2023-12-14T05:52:51;3.90;99.90
18741;DHT22;9499;52.472;13.448;2023-12-14T05:55:18;3.90;99.90
18741;DHT22;9499;52.472;13.448;2023-12-14T05:57:47;4.00;99.90
18741;DHT22;9499;52.472;13.448;2023-12-14T06:00:14;4.00;99.90
18741;DHT22;9499;52.472;13.448;2023-12-14T06:02:41;4.00;99.90
18741;DHT22;9499;52.472;13.448;2023-12-14T06:05:08;4.00;99.90
18741;DHT22;9499;52.472;13.448;2023-12-14T06:07:36;4.00;99.90
18741;DHT22;9499;52.472;13.448;2023-12-14T06:10:04;4.00;99.90
18741;DHT22;9499;52.472;13.448;2023-12-14T06:12:32;4.00;99.90
18741;DHT22;9499;52.472;13.448;2023-12-14T06:14:58;4.00;99.90
18741;DHT22;9499;52.472;13.448;2023-12-14T06:17:25;4.00;99.90
18741;DHT22;9499;52.472;13.448;2023-12-14T06:19:52;3.90;99.90
18741;DHT22;9499;52.472;13.448;2023-12-14T06:22:19;3.90;99.90
18741;DHT22;9499;52.472;13.448;2023-12-14T06:24:48;3.90;99.90
18741;DHT22;9499;52.472;13.448;2023-12-14T06:27:15;3.90;99.90
18741;DHT22;9499;52.472;13.448;2023-12-14T06:29:42;3.90;99.90
18741;DHT22;9499;52.472;13.448;2023-12-14T06:32:08;3.90;99.90
18741;DHT22;9499;52.472;13.448;2023-12-14T06:34:37;4.00;99.90
18741;DHT22;9499;52.472;13.448;2023-12-14T06:37:07;4.00;99.90
18741;DHT22;9499;52.472;13.448;2023-12-14T06:39:36;4.00;99.90
18741;DHT22;9499;52.472;13.448;2023-12-14T06:42:06;4.00;99.90
18741;DHT22;9499;52.472;13.448;2023-12-14T06:44:34;4.10;99.90
18741;DHT22;9499;52.472;13.448;2023-12-14T06:47:01;4.10;99.90
18741;DHT22;9499;52.472;13.448;2023-12-14T06:49:27;4.10;99.90
18741;DHT22;9499;52.472;13.448;2023-12-14T06:51:54;4.00;99.90
18741;DHT22;9499;52.472;13.448;2023-12-14T06:54:21;4.00;99.90
18741;DHT22;9499;52.472;13.448;2023-12-14T06:56:47;4.00;99.90
18741;DHT22;9499;52.472;13.448;2023-12-14T06:59:15;4.00;99.90
18741;DHT22;9499;52.472;13.448;2023-12-14T07:01:43;4.10;99.90
18741;DHT22;9499;52.472;13.448;2023-12-14T07:04:09;4.10;99.90
18741;DHT22;9499;52.472;13.448;2023-12-14T07:06:36;4.10;99.90
18741;DHT22;9499;52.472;13.448;2023-12-14T07:09:02;4.10;99.90
18741;DHT22;9499;52.472;13.448;2023-12-14T07:11:29;4.10;99.90
18741;DHT22;9499;52.472;13.448;2023-12-14T07:13:57;4.10;99.90
18741;DHT22;9499;52.472;13.448;2023-12-14T07:16:26;4.10;99.90
18741;DHT22;9499;52.472;13.448;2023-12-14T07:18:53;4.00;99.90
18741;DHT22;9499;52.472;13.448;2023-12-14T07:21:19;4.10;99.90
18741;DHT22;9499;52.472;13.448;2023-12-14T07:23:47;4.00;99.90
18741;DHT22;9499;52.472;13.448;2023-12-14T07:26:14;4.10;99.90
18741;DHT22;9499;52.472;13.448;2023-12-14T07:28:41;4.10;99.90
18741;DHT22;9499;52.472;13.448;2023-12-14T07:31:08;4.10;99.90
18741;DHT22;9499;52.472;13.448;2023-12-14T07:33:36;4.10;99.90
18741;DHT22;9499;52.472;13.448;2023-12-14T07:36:04;4.10;99.90
18741;DHT22;9499;52.472;13.448;2023-12-14T07:38:31;4.20;99.90
18741;DHT22;9499;52.472;13.448;2023-12-14T07:40:58;4.20;99.90
18741;DHT22;9499;52.472;13.448;2023-12-14T07:43:25;4.10;99.90
18741;DHT22;9499;52.472;13.448;2023-12-14T07:45:54;4.10;99.90
18741;DHT22;9499;52.472;13.448;2023-12-14T07:48:23;4.10;99.90
18741;DHT22;9499;52.472;13.448;2023-12-14T07:50:51;4.10;99.90
18741;DHT22;9499;52.472;13.448;2023-12-14T07:53:17;4.20;99.90
18741;DHT22;9499;52.472;13.448;2023-12-14T07:55:44;4.20;99.90
18741;DHT22;9499;52.472;13.448;2023-12-14T07:58:11;4.20;99.90
18741;DHT22;9499;52.472;13.448;2023-12-14T08:00:38;4.20;99.90
18741;DHT22;9499;52.472;13.448;2023-12-14T08:03:05;4.20;99.90
18741;DHT22;9499;52.472;13.448;2023-12-14T08:05:33;4.10;99.90
18741;DHT22;9499;52.472;13.448;2023-12-14T08:08:01;4.20;99.90
18741;DHT22;9499;52.472;13.448;2023-12-14T08:10:28;4.10;99.90
18741;DHT22;9499;52.472;13.448;2023-12-14T08:12:57;4.20;99.90
18741;DHT22;9499;52.472;13.448;2023-12-14T08:15:24;4.20;99.90
18741;DHT22;9499;52.472;13.448;2023-12-14T08:17:50;4.20;99.90
18741;DHT22;9499;52.472;13.448;2023-12-14T08:20:17;4.20;99.90
18741;DHT22;9499;52.472;13.448;2023-12-14T08:22:44;4.20;99.90
18741;DHT22;9499;52.472;13.448;2023-12-14T08:25:13;4.20;99.90
18741;DHT22;9499;52.472;13.448;2023-12-14T08:27:41;4.20;99.90
18741;DHT22;9499;52.472;13.448;2023-12-14T08:30:08;4.30;99.90
18741;DHT22;9499;52.472;13.448;2023-12-14T08:32:36;4.30;99.90
18741;DHT22;9499;52.472;13.448;2023-12-14T08:35:04;4.30;99.90
18741;DHT22;9499;52.472;13.448;2023-12-14T08:37:32;4.20;99.90
18741;DHT22;9499;52.472;13.448;2023-12-14T08:39:59;4.20;99.90
18741;DHT22;9499;52.472;13.448;2023-12-14T08:42:27;4.20;99.90
18741;DHT22;9499;52.472;13.448;2023-12-14T08:44:53;4.20;99.90
18741;DHT22;9499;52.472;13.448;2023-12-14T08:47:20;4.20;99.90
18741;DHT22;9499;52.472;13.448;2023-12-14T08:49:47;4.20;99.90
18741;DHT22;9499;52.472;13.448;2023-12-14T08:52:15;4.10;99.90
18741;DHT22;9499;52.472;13.448;2023-12-14T08:54:42;4.10;99.90
18741;DHT22;9499;52.472;13.448;2023-12-14T08:57:11;4.20;99.90
18741;DHT22;9499;52.472;13.448;2023-12-14T08:59:40;4.20;99.90
18741;DHT22;9499;52.472;13.448;2023-12-14T09:02:09;4.20;99.90
18741;DHT22;9499;52.472;13.448;2023-12-14T09:04:36;4.30;99.90
18741;DHT22;9499;52.472;13.448;2023-12-14T09:07:04;4.30;99.90
18741;DHT22;9499;52.472;13.448;2023-12-14T09:09:31;4.30;99.90
18741;DHT22;9499;52.472;13.448;2023-12-14T09:12:00;4.30;99.90
18741;DHT22;9499;52.472;13.448;2023-12-14T09:14:26;4.40;99.90
18741;DHT22;9499;52.472;13.448;2023-12-14T09:16:55;4.40;99.90
18741;DHT22;9499;52.472;13.448;2023-12-14T09:19:21;4.40;99.90
18741;DHT22;9499;52.472;13.448;2023-12-14T09:21:48;4.40;99.90
18741;DHT22;9499;52.472;13.448;2023-12-14T09:24:15;4.40;99.90
18741;DHT22;9499;52.472;13.448;2023-12-14T09:26:42;4.40;99.90
18741;DHT22;9499;52.472;13.448;2023-12-14T09:29:09;4.40;99.90
18741;DHT22;9499;52.472;13.448;2023-12-14T09:31:36;4.40;99.90
18741;DHT22;9499;52.472;13.448;2023-12-14T09:34:04;4.40;99.90
18741;DHT22;9499;52.472;13.448;2023-12-14T09:36:32;4.40;99.90
18741;DHT22;9499;52.472;13.448;2023-12-14T09:38:59;4.40;99.90
18741;DHT22;9499;52.472;13.448;2023-12-14T09:41:26;4.40;99.90
18741;DHT22;9499;52.472;13.448;2023-12-14T09:43:53;4.50;99.90
18741;DHT22;9499;52.472;13.448;2023-12-14T09:46:22;4.40;99.90
18741;DHT22;9499;52.472;13.448;2023-12-14T09:48:50;4.40;99.90
18741;DHT22;9499;52.472;13.448;2023-12-14T09:51:20;4.40;99.90
18741;DHT22;9499;52.472;13.448;2023-12-14T09:53:49;4.40;99.90
18741;DHT22;9499;52.472;13.448;2023-12-14T09:56:16;4.40;99.90
18741;DHT22;9499;52.472;13.448;2023-12-14T09:58:43;4.30;99.90
18741;DHT22;9499;52.472;13.448;2023-12-14T10:01:23;4.30;99.90
18741;DHT22;9499;52.472;13.448;2023-12-14T10:03:50;4.30;99.90
18741;DHT22;9499;52.472;13.448;2023-12-14T10:06:17;4.30;99.90
18741;DHT22;9499;52.472;13.448;2023-12-14T10:08:56;4.30;99.90
18741;DHT22;9499;52.472;13.448;2023-12-14T10:11:22;4.30;99.90
18741;DHT22;9499;52.472;13.448;2023-12-14T10:13:49;4.30;99.90
18741;DHT22;9499;52.472;13.448;2023-12-14T10:16:29;4.30;99.90
18741;DHT22;9499;52.472;13.448;2023-12-14T10:19:05;4.30;99.90
18741;DHT22;9499;52.472;13.448;2023-12-14T10:21:35;4.30;99.90
18741;DHT22;9499;52.472;13.448;2023-12-14T10:24:04;4.30;99.90
18741;DHT22;9499;52.472;13.448;2023-12-14T10:26:33;4.30;99.90
18741;DHT22;9499;52.472;13.448;2023-12-14T10:29:01;4.30;99.90
18741;DHT22;9499;52.472;13.448;2023-12-14T10:31:30;4.30;99.90
18741;DHT22;9499;52.472;13.448;2023-12-14T10:33:57;4.30;99.90
18741;DHT22;9499;52.472;13.448;2023-12-14T10:36:25;4.30;99.90
18741;DHT22;9499;52.472;13.448;2023-12-14T10:38:53;4.30;99.90
18741;DHT22;9499;52.472;13.448;2023-12-14T10:41:29;4.40;99.90
18741;DHT22;9499;52.472;13.448;2023-12-14T10:44:00;4.40;99.90
18741;DHT22;9499;52.472;13.448;2023-12-14T10:46:27;4.40;99.90
18741;DHT22;9499;52.472;13.448;2023-12-14T10:48:57;4.40;99.90
18741;DHT22;9499;52.472;13.448;2023-12-14T10:51:25;4.50;99.90
18741;DHT22;9499;52.472;13.448;2023-12-14T10:53:54;4.50;99.90
18741;DHT22;9499;52.472;13.448;2023-12-14T10:56:25;4.50;99.90
18741;DHT22;9499;52.472;13.448;2023-12-14T10:58:54;4.50;99.90
18741;DHT22;9499;52.472;13.448;2023-12-14T11:01:22;4.50;99.90
18741;DHT22;9499;52.472;13.448;2023-12-14T11:03:53;4.50;99.90
18741;DHT22;9499;52.472;13.448;2023-12-14T11:06:26;4.60;99.90
18741;DHT22;9499;52.472;13.448;2023-12-14T11:08:57;4.60;99.90
18741;DHT22;9499;52.472;13.448;2023-12-14T11:11:28;4.50;99.90
18741;DHT22;9499;52.472;13.448;2023-12-14T11:13:55;4.50;99.90
18741;DHT22;9499;52.472;13.448;2023-12-14T11:16:26;4.50;99.90
18741;DHT22;9499;52.472;13.448;2023-12-14T11:19:25;4.50;99.90
18741;DHT22;9499;52.472;13.448;2023-12-14T11:22:22;4.50;99.90
18741;DHT22;9499;52.472;13.448;2023-12-14T11:24:53;4.50;99.90
18741;DHT22;9499;52.472;13.448;2023-12-14T11:27:26;4.50;99.90
18741;DHT22;9499;52.472;13.448;2023-12-14T11:29:56;4.50;99.90
18741;DHT22;9499;52.472;13.448;2023-12-14T11:32:25;4.50;99.90
18741;DHT22;9499;52.472;13.448;2023-12-14T11:34:52;4.50;99.90
18741;DHT22;9499;52.472;13.448;2023-12-14T11:37:18;4.50;99.90
18741;DHT22;9499;52.472;13.448;2023-12-14T11:39:48;4.50;99.90
18741;DHT22;9499;52.472;13.448;2023-12-14T11:42:18;4.50;99.90
18741;DHT22;9499;52.472;13.448;2023-12-14T11:44:47;4.50;99.90
18741;DHT22;9499;52.472;13.448;2023-12-14T11:47:16;4.60;99.90
18741;DHT22;9499;52.472;13.448;2023-12-14T11:49:43;4.60;99.90
18741;DHT22;9499;52.472;13.448;2023-12-14T11:52:10;4.60;99.90
18741;DHT22;9499;52.472;13.448;2023-12-14T11:54:37;4.60;99.90
18741;DHT22;9499;52.472;13.448;2023-12-14T11:57:05;4.50;99.90
18741;DHT22;9499;52.472;13.448;2023-12-14T11:59:36;4.60;99.90
18741;DHT22;9499;52.472;13.448;2023-12-14T12:02:05;4.60;99.90
18741;DHT22;9499;52.472;13.448;2023-12-14T12:04:32;4.60;99.90
18741;DHT22;9499;52.472;13.448;2023-12-14T12:06:59;4.60;99.90
18741;DHT22;9499;52.472;13.448;2023-12-14T12:09:37;4.60;99.90
18741;DHT22;9499;52.472;13.448;2023-12-14T12:12:08;4.60;99.90
18741;DHT22;9499;52.472;13.448;2023-12-14T12:14:35;4.70;99.90
18741;DHT22;9499;52.472;13.448;2023-12-14T12:17:02;4.70;99.90
18741;DHT22;9499;52.472;13.448;2023-12-14T12:19:32;4.70;99.90
18741;DHT22;9499;52.472;13.448;2023-12-14T12:22:00;4.60;99.90
18741;DHT22;9499;52.472;13.448;2023-12-14T12:24:27;4.60;99.90
18741;DHT22;9499;52.472;13.448;2023-12-14T12:26:54;4.50;99.90
18741;DHT22;9499;52.472;13.448;2023-12-14T12:29:22;4.60;99.90
18741;DHT22;9499;52.472;13.448;2023-12-14T12:31:50;4.60;99.90
18741;DHT22;9499;52.472;13.448;2023-12-14T12:34:17;4.60;99.90
18741;DHT22;9499;52.472;13.448;2023-12-14T12:36:46;4.60;99.90
18741;DHT22;9499;52.472;13.448;2023-12-14T12:39:13;4.60;99.90
18741;DHT22;9499;52.472;13.448;2023-12-14T12:41:41;4.60;99.90
18741;DHT22;9499;52.472;13.448;2023-12-14T12:44:08;4.70;99.90
18741;DHT22;9499;52.472;13.448;2023-12-14T12:46:35;4.70;99.90
18741;DHT22;9499;52.472;13.448;2023-12-14T12:49:05;4.70;99.90
18741;DHT22;9499;52.472;13.448;2023-12-14T12:51:32;4.70;99.90
18741;DHT22;9499;52.472;13.448;2023-12-14T12:54:02;4.70;99.90
18741;DHT22;9499;52.472;13.448;2023-12-14T12:56:29;4.70;99.90
18741;DHT22;9499;52.472;13.448;2023-12-14T12:58:57;4.70;99.90
18741;DHT22;9499;52.472;13.448;2023-12-14T13:01:24;4.70;99.90
18741;DHT22;9499;52.472;13.448;2023-12-14T13:03:53;4.70;99.90
18741;DHT22;9499;52.472;13.448;2023-12-14T13:06:20;4.70;99.90
18741;DHT22;9499;52.472;13.448;2023-12-14T13:08:47;4.70;99.90
18741;DHT22;9499;52.472;13.448;2023-12-14T13:11:15;4.70;99.90
18741;DHT22;9499;52.472;13.448;2023-12-14T13:13:42;4.70;99.90
18741;DHT22;9499;52.472;13.448;2023-12-14T13:16:09;4.70;99.90
18741;DHT22;9499;52.472;13.448;2023-12-14T13:18:39;4.70;99.90
18741;DHT22;9499;52.472;13.448;2023-12-14T13:21:06;4.70;99.90
18741;DHT22;9499;52.472;13.448;2023-12-14T13:23:33;4.70;99.90
18741;DHT22;9499;52.472;13.448;2023-12-14T13:26:00;4.70;99.90
18741;DHT22;9499;52.472;13.448;2023-12-14T13:28:28;4.60;99.90
18741;DHT22;9499;52.472;13.448;2023-12-14T13:30:55;4.60;99.90
18741;DHT22;9499;52.472;13.448;2023-12-14T13:33:22;4.60;99.90
18741;DHT22;9499;52.472;13.448;2023-12-14T13:35:48;4.60;99.90
18741;DHT22;9499;52.472;13.448;2023-12-14T13:38:16;4.60;99.90
18741;DHT22;9499;52.472;13.448;2023-12-14T13:40:43;4.60;99.90
18741;DHT22;9499;52.472;13.448;2023-12-14T13:43:09;4.60;99.90
18741;DHT22;9499;52.472;13.448;2023-12-14T13:45:38;4.60;99.90
18741;DHT22;9499;52.472;13.448;2023-12-14T13:48:07;4.50;99.90
18741;DHT22;9499;52.472;13.448;2023-12-14T13:50:34;4.50;99.90
18741;DHT22;9499;52.472;13.448;2023-12-14T13:53:00;4.60;99.90
18741;DHT22;9499;52.472;13.448;2023-12-14T13:55:27;4.60;99.90
18741;DHT22;9499;52.472;13.448;2023-12-14T13:57:54;4.60;99.90
18741;DHT22;9499;52.472;13.448;2023-12-14T14:00:23;4.60;99.90
18741;DHT22;9499;52.472;13.448;2023-12-14T14:02:53;4.60;99.90
18741;DHT22;9499;52.472;13.448;2023-12-14T14:05:20;4.60;99.90
18741;DHT22;9499;52.472;13.448;2023-12-14T14:07:47;4.60;99.90
18741;DHT22;9499;52.472;13.448;2023-12-14T14:10:14;4.60;99.90
18741;DHT22;9499;52.472;13.448;2023-12-14T14:12:40;4.50;99.90
18741;DHT22;9499;52.472;13.448;2023-12-14T14:15:08;4.50;99.90
18741;DHT22;9499;52.472;13.448;2023-12-14T14:17:35;4.50;99.90
18741;DHT22;9499;52.472;13.448;2023-12-14T14:20:05;4.50;99.90
18741;DHT22;9499;52.472;13.448;2023-12-14T14:22:32;4.50;99.90
18741;DHT22;9499;52.472;13.448;2023-12-14T14:24:59;4.50;99.90
18741;DHT22;9499;52.472;13.448;2023-12-14T14:27:26;4.50;99.90
18741;DHT22;9499;52.472;13.448;2023-12-14T14:29:54;4.50;99.90
18741;DHT22;9499;52.472;13.448;2023-12-14T14:32:22;4.40;99.90
18741;DHT22;9499;52.472;13.448;2023-12-14T14:34:48;4.40;99.90
18741;DHT22;9499;52.472;13.448;2023-12-14T14:37:18;4.40;99.90
18741;DHT22;9499;52.472;13.448;2023-12-14T14:39:45;4.40;99.90
18741;DHT22;9499;52.472;13.448;2023-12-14T14:42:12;4.40;99.90
18741;DHT22;9499;52.472;13.448;2023-12-14T14:44:39;4.40;99.90
18741;DHT22;9499;52.472;13.448;2023-12-14T14:47:06;4.40;99.90
18741;DHT22;9499;52.472;13.448;2023-12-14T14:49:33;4.40;99.90
18741;DHT22;9499;52.472;13.448;2023-12-14T14:51:59;4.40;99.90
18741;DHT22;9499;52.472;13.448;2023-12-14T14:54:27;4.40;99.90
18741;DHT22;9499;52.472;13.448;2023-12-14T14:56:56;4.40;99.90
18741;DHT22;9499;52.472;13.448;2023-12-14T14:59:23;4.30;99.90
18741;DHT22;9499;52.472;13.448;2023-12-14T15:01:50;4.30;99.90
18741;DHT22;9499;52.472;13.448;2023-12-14T15:04:18;4.30;99.90
18741;DHT22;9499;52.472;13.448;2023-12-14T15:06:45;4.20;99.90
18741;DHT22;9499;52.472;13.448;2023-12-14T15:09:11;4.20;99.90
18741;DHT22;9499;52.472;13.448;2023-12-14T15:11:40;4.20;99.90
18741;DHT22;9499;52.472;13.448;2023-12-14T15:14:09;4.30;99.90
18741;DHT22;9499;52.472;13.448;2023-12-14T15:16:36;4.30;99.90
18741;DHT22;9499;52.472;13.448;2023-12-14T15:19:04;4.30;99.90
18741;DHT22;9499;52.472;13.448;2023-12-14T15:21:30;4.30;99.90
18741;DHT22;9499;52.472;13.448;2023-12-14T15:23:58;4.30;99.90
18741;DHT22;9499;52.472;13.448;2023-12-14T15:26:25;4.30;99.90
18741;DHT22;9499;52.472;13.448;2023-12-14T15:28:57;4.30;99.90
18741;DHT22;9499;52.472;13.448;2023-12-14T15:31:24;4.40;99.90
18741;DHT22;9499;52.472;13.448;2023-12-14T15:33:51;4.40;99.90
18741;DHT22;9499;52.472;13.448;2023-12-14T15:36:18;4.40;99.90
18741;DHT22;9499;52.472;13.448;2023-12-14T15:38:45;4.30;99.90
18741;DHT22;9499;52.472;13.448;2023-12-14T15:41:11;4.30;99.90
18741;DHT22;9499;52.472;13.448;2023-12-14T15:43:40;4.30;99.90
18741;DHT22;9499;52.472;13.448;2023-12-14T15:46:09;4.30;99.90
18741;DHT22;9499;52.472;13.448;2023-12-14T15:48:37;4.30;99.90